sensor_id;sensor_type;location;lat;lon;timestamp;temperature;humidity
68450;SHT30;67758;39.572;2.652;2023-04-03T00:01:24;14.26;70.31
68450;SHT30;67758;39.572;2.652;2023-04-03T00:03:49;14.25;70.82
68450;SHT30;67758;39.572;2.652;2023-04-03T00:06:17;14.23;70.55
68450;SHT30;67758;39.572;2.652;2023-04-03T00:08:42;14.30;71.52
68450;SHT30;67758;39.572;2.652;2023-04-03T00:11:09;14.30;71.20
68450;SHT30;67758;39.572;2.652;2023-04-03T00:13:35;14.40;71.10
68450;SHT30;67758;39.572;2.652;2023-04-03T00:16:01;14.38;71.27
68450;SHT30;67758;39.572;2.652;2023-04-03T00:18:30;14.34;71.24
68450;SHT30;67758;39.572;2.652;2023-04-03T00:20:56;14.27;71.65
68450;SHT30;67758;39.572;2.652;2023-04-03T00:23:21;14.30;71.90
68450;SHT30;67758;39.572;2.652;2023-04-03T00:25:49;14.23;72.03
68450;SHT30;67758;39.572;2.652;2023-04-03T00:28:15;14.19;72.45
68450;SHT30;67758;39.572;2.652;2023-04-03T00:30:41;14.05;72.82
68450;SHT30;67758;39.572;2.652;2023-04-03T00:33:07;13.98;73.13
68450;SHT30;67758;39.572;2.652;2023-04-03T00:35:34;13.95;73.33
68450;SHT30;67758;39.572;2.652;2023-04-03T00:38:00;13.92;73.36
68450;SHT30;67758;39.572;2.652;2023-04-03T00:40:26;13.92;73.40
68450;SHT30;67758;39.572;2.652;2023-04-03T00:42:57;13.89;73.61
68450;SHT30;67758;39.572;2.652;2023-04-03T00:45:36;13.89;73.99
68450;SHT30;67758;39.572;2.652;2023-04-03T00:48:05;13.89;74.03
68450;SHT30;67758;39.572;2.652;2023-04-03T00:50:34;13.87;74.09
68450;SHT30;67758;39.572;2.652;2023-04-03T00:53:01;13.87;73.99
68450;SHT30;67758;39.572;2.652;2023-04-03T00:55:29;13.90;73.83
68450;SHT30;67758;39.572;2.652;2023-04-03T00:57:54;13.83;73.98
68450;SHT30;67758;39.572;2.652;2023-04-03T01:00:21;13.78;74.15
68450;SHT30;67758;39.572;2.652;2023-04-03T01:02:49;13.83;74.28
68450;SHT30;67758;39.572;2.652;2023-04-03T01:05:16;13.75;74.29
68450;SHT30;67758;39.572;2.652;2023-04-03T01:07:42;13.78;74.46
68450;SHT30;67758;39.572;2.652;2023-04-03T01:10:11;13.75;74.45
68450;SHT30;67758;39.572;2.652;2023-04-03T01:12:41;13.79;74.69
68450;SHT30;67758;39.572;2.652;2023-04-03T01:15:11;13.74;74.55
68450;SHT30;67758;39.572;2.652;2023-04-03T01:23:00;13.58;75.05
68450;SHT30;67758;39.572;2.652;2023-04-03T01:25:24;13.44;75.42
68450;SHT30;67758;39.572;2.652;2023-04-03T01:27:50;13.47;75.29
68450;SHT30;67758;39.572;2.652;2023-04-03T01:30:18;13.47;75.42
68450;SHT30;67758;39.572;2.652;2023-04-03T01:32:44;13.47;75.65
68450;SHT30;67758;39.572;2.652;2023-04-03T01:35:10;13.40;75.90
68450;SHT30;67758;39.572;2.652;2023-04-03T01:37:35;13.27;75.70
68450;SHT30;67758;39.572;2.652;2023-04-03T01:40:01;13.20;75.86
68450;SHT30;67758;39.572;2.652;2023-04-03T01:42:28;13.17;76.26
68450;SHT30;67758;39.572;2.652;2023-04-03T01:44:54;13.06;76.33
68450;SHT30;67758;39.572;2.652;2023-04-03T01:47:20;12.99;76.62
68450;SHT30;67758;39.572;2.652;2023-04-03T01:49:46;12.94;76.84
68450;SHT30;67758;39.572;2.652;2023-04-03T01:52:12;12.89;77.05
68450;SHT30;67758;39.572;2.652;2023-04-03T01:54:37;12.93;77.09
68450;SHT30;67758;39.572;2.652;2023-04-03T01:57:03;12.90;77.13
68450;SHT30;67758;39.572;2.652;2023-04-03T01:59:28;12.87;77.19
68450;SHT30;67758;39.572;2.652;2023-04-03T02:01:54;12.93;77.09
68450;SHT30;67758;39.572;2.652;2023-04-03T02:04:20;12.93;77.14
68450;SHT30;67758;39.572;2.652;2023-04-03T02:06:46;12.93;76.98
68450;SHT30;67758;39.572;2.652;2023-04-03T02:09:11;12.91;77.08
68450;SHT30;67758;39.572;2.652;2023-04-03T02:11:37;12.91;77.06
68450;SHT30;67758;39.572;2.652;2023-04-03T02:14:02;12.93;77.02
68450;SHT30;67758;39.572;2.652;2023-04-03T02:16:28;12.90;77.17
68450;SHT30;67758;39.572;2.652;2023-04-03T02:18:54;12.89;77.21
68450;SHT30;67758;39.572;2.652;2023-04-03T02:21:20;12.90;77.22
68450;SHT30;67758;39.572;2.652;2023-04-03T02:23:45;12.90;77.14
68450;SHT30;67758;39.572;2.652;2023-04-03T02:26:13;12.76;77.47
68450;SHT30;67758;39.572;2.652;2023-04-03T02:28:39;12.69;77.71
68450;SHT30;67758;39.572;2.652;2023-04-03T02:31:06;12.60;77.88
68450;SHT30;67758;39.572;2.652;2023-04-03T02:33:32;12.53;78.28
68450;SHT30;67758;39.572;2.652;2023-04-03T02:35:58;12.48;78.55
68450;SHT30;67758;39.572;2.652;2023-04-03T02:38:24;12.50;78.57
68450;SHT30;67758;39.572;2.652;2023-04-03T02:40:50;12.46;78.64
68450;SHT30;67758;39.572;2.652;2023-04-03T02:43:16;12.42;78.93
68450;SHT30;67758;39.572;2.652;2023-04-03T02:45:42;12.43;78.97
68450;SHT30;67758;39.572;2.652;2023-04-03T02:48:08;12.46;79.05
68450;SHT30;67758;39.572;2.652;2023-04-03T02:50:33;12.48;78.95
68450;SHT30;67758;39.572;2.652;2023-04-03T02:52:59;12.49;78.88
68450;SHT30;67758;39.572;2.652;2023-04-03T02:55:25;12.49;78.98
68450;SHT30;67758;39.572;2.652;2023-04-03T02:57:50;12.50;79.04
68450;SHT30;67758;39.572;2.652;2023-04-03T03:00:16;12.50;79.06
68450;SHT30;67758;39.572;2.652;2023-04-03T03:02:42;12.55;78.89
68450;SHT30;67758;39.572;2.652;2023-04-03T03:05:07;12.57;78.96
68450;SHT30;67758;39.572;2.652;2023-04-03T03:07:33;12.55;78.92
68450;SHT30;67758;39.572;2.652;2023-04-03T03:09:59;12.49;78.97
68450;SHT30;67758;39.572;2.652;2023-04-03T03:12:25;12.57;79.17
68450;SHT30;67758;39.572;2.652;2023-04-03T03:14:51;12.50;79.07
68450;SHT30;67758;39.572;2.652;2023-04-03T03:17:17;12.52;79.09
68450;SHT30;67758;39.572;2.652;2023-04-03T03:19:43;12.56;78.84
68450;SHT30;67758;39.572;2.652;2023-04-03T03:22:09;12.55;78.78
68450;SHT30;67758;39.572;2.652;2023-04-03T03:24:34;12.53;78.77
68450;SHT30;67758;39.572;2.652;2023-04-03T03:27:00;12.48;78.92
68450;SHT30;67758;39.572;2.652;2023-04-03T03:29:26;12.45;79.03
68450;SHT30;67758;39.572;2.652;2023-04-03T03:31:51;12.40;79.13
68450;SHT30;67758;39.572;2.652;2023-04-03T03:34:17;12.38;79.32
68450;SHT30;67758;39.572;2.652;2023-04-03T03:36:43;12.40;79.24
68450;SHT30;67758;39.572;2.652;2023-04-03T03:39:09;12.42;79.28
68450;SHT30;67758;39.572;2.652;2023-04-03T03:41:35;12.42;79.31
68450;SHT30;67758;39.572;2.652;2023-04-03T03:44:00;12.40;79.34
68450;SHT30;67758;39.572;2.652;2023-04-03T03:46:26;12.40;79.55
68450;SHT30;67758;39.572;2.652;2023-04-03T03:48:51;12.43;79.44
68450;SHT30;67758;39.572;2.652;2023-04-03T03:51:17;12.48;79.37
68450;SHT30;67758;39.572;2.652;2023-04-03T03:53:43;12.50;79.28
68450;SHT30;67758;39.572;2.652;2023-04-03T03:56:08;12.49;79.11
68450;SHT30;67758;39.572;2.652;2023-04-03T03:58:34;12.46;79.19
68450;SHT30;67758;39.572;2.652;2023-04-03T04:01:04;12.42;79.32
68450;SHT30;67758;39.572;2.652;2023-04-03T04:03:30;12.43;79.37
68450;SHT30;67758;39.572;2.652;2023-04-03T04:05:56;12.43;79.54
68450;SHT30;67758;39.572;2.652;2023-04-03T04:08:22;12.49;79.49
68450;SHT30;67758;39.572;2.652;2023-04-03T04:10:48;12.46;79.37
68450;SHT30;67758;39.572;2.652;2023-04-03T04:13:13;12.42;79.43
68450;SHT30;67758;39.572;2.652;2023-04-03T04:15:39;12.45;79.56
68450;SHT30;67758;39.572;2.652;2023-04-03T04:18:05;12.55;79.65
68450;SHT30;67758;39.572;2.652;2023-04-03T04:20:31;12.48;79.35
68450;SHT30;67758;39.572;2.652;2023-04-03T04:22:56;12.53;79.26
68450;SHT30;67758;39.572;2.652;2023-04-03T04:25:22;12.48;79.24
68450;SHT30;67758;39.572;2.652;2023-04-03T04:27:47;12.38;79.34
68450;SHT30;67758;39.572;2.652;2023-04-03T04:30:13;12.38;79.29
68450;SHT30;67758;39.572;2.652;2023-04-03T04:32:39;12.38;79.16
68450;SHT30;67758;39.572;2.652;2023-04-03T04:35:05;12.30;79.27
68450;SHT30;67758;39.572;2.652;2023-04-03T04:37:31;12.14;79.69
68450;SHT30;67758;39.572;2.652;2023-04-03T04:39:56;12.01;80.08
68450;SHT30;67758;39.572;2.652;2023-04-03T04:42:22;11.94;80.36
68450;SHT30;67758;39.572;2.652;2023-04-03T04:44:48;11.81;80.52
68450;SHT30;67758;39.572;2.652;2023-04-03T04:47:13;11.74;80.76
68450;SHT30;67758;39.572;2.652;2023-04-03T04:49:39;11.64;81.16
68450;SHT30;67758;39.572;2.652;2023-04-03T04:52:04;11.63;81.38
68450;SHT30;67758;39.572;2.652;2023-04-03T04:54:30;11.34;82.03
68450;SHT30;67758;39.572;2.652;2023-04-03T04:56:56;11.20;82.63
68450;SHT30;67758;39.572;2.652;2023-04-03T04:59:21;11.37;82.44
68450;SHT30;67758;39.572;2.652;2023-04-03T05:01:47;11.27;82.68
68450;SHT30;67758;39.572;2.652;2023-04-03T05:04:12;11.16;83.03
68450;SHT30;67758;39.572;2.652;2023-04-03T05:06:38;11.15;83.28
68450;SHT30;67758;39.572;2.652;2023-04-03T05:09:04;11.22;83.05
68450;SHT30;67758;39.572;2.652;2023-04-03T05:11:30;11.10;83.16
68450;SHT30;67758;39.572;2.652;2023-04-03T05:13:56;11.15;83.33
68450;SHT30;67758;39.572;2.652;2023-04-03T05:16:21;11.22;83.34
68450;SHT30;67758;39.572;2.652;2023-04-03T05:18:47;11.30;83.15
68450;SHT30;67758;39.572;2.652;2023-04-03T05:21:12;11.36;83.06
68450;SHT30;67758;39.572;2.652;2023-04-03T05:23:38;11.46;82.86
68450;SHT30;67758;39.572;2.652;2023-04-03T05:26:04;11.48;82.45
68450;SHT30;67758;39.572;2.652;2023-04-03T05:28:30;11.53;82.29
68450;SHT30;67758;39.572;2.652;2023-04-03T05:30:57;11.57;82.33
68450;SHT30;67758;39.572;2.652;2023-04-03T05:33:23;11.64;82.19
68450;SHT30;67758;39.572;2.652;2023-04-03T05:35:49;11.68;82.00
68450;SHT30;67758;39.572;2.652;2023-04-03T05:38:15;11.73;81.82
68450;SHT30;67758;39.572;2.652;2023-04-03T05:40:41;11.77;81.78
68450;SHT30;67758;39.572;2.652;2023-04-03T05:43:06;11.79;81.46
68450;SHT30;67758;39.572;2.652;2023-04-03T05:45:32;11.77;81.38
68450;SHT30;67758;39.572;2.652;2023-04-03T05:47:57;11.79;81.38
68450;SHT30;67758;39.572;2.652;2023-04-03T05:50:23;11.81;81.27
68450;SHT30;67758;39.572;2.652;2023-04-03T05:52:50;11.82;81.38
68450;SHT30;67758;39.572;2.652;2023-04-03T05:55:18;11.85;81.34
68450;SHT30;67758;39.572;2.652;2023-04-03T05:57:44;11.88;81.31
68450;SHT30;67758;39.572;2.652;2023-04-03T06:00:12;11.95;81.29
68450;SHT30;67758;39.572;2.652;2023-04-03T06:02:39;12.05;81.11
68450;SHT30;67758;39.572;2.652;2023-04-03T06:05:07;12.12;80.86
68450;SHT30;67758;39.572;2.652;2023-04-03T06:07:33;12.22;80.77
68450;SHT30;67758;39.572;2.652;2023-04-03T06:09:59;12.30;80.40
68450;SHT30;67758;39.572;2.652;2023-04-03T06:12:25;12.35;80.09
68450;SHT30;67758;39.572;2.652;2023-04-03T06:14:51;12.36;79.91
68450;SHT30;67758;39.572;2.652;2023-04-03T06:17:17;12.48;79.87
68450;SHT30;67758;39.572;2.652;2023-04-03T06:19:44;12.45;79.60
68450;SHT30;67758;39.572;2.652;2023-04-03T06:22:10;12.57;79.33
68450;SHT30;67758;39.572;2.652;2023-04-03T06:24:37;12.59;78.82
68450;SHT30;67758;39.572;2.652;2023-04-03T06:27:03;12.66;78.65
68450;SHT30;67758;39.572;2.652;2023-04-03T06:29:30;12.63;78.82
68450;SHT30;67758;39.572;2.652;2023-04-03T06:31:56;12.72;78.68
68450;SHT30;67758;39.572;2.652;2023-04-03T06:34:22;12.75;78.59
68450;SHT30;67758;39.572;2.652;2023-04-03T06:36:48;12.91;78.73
68450;SHT30;67758;39.572;2.652;2023-04-03T06:39:18;13.03;78.01
68450;SHT30;67758;39.572;2.652;2023-04-03T06:41:50;13.28;77.24
68450;SHT30;67758;39.572;2.652;2023-04-03T06:44:16;13.41;76.73
68450;SHT30;67758;39.572;2.652;2023-04-03T06:46:43;13.51;76.47
68450;SHT30;67758;39.572;2.652;2023-04-03T06:49:10;13.57;76.25
68450;SHT30;67758;39.572;2.652;2023-04-03T06:51:36;13.62;76.17
68450;SHT30;67758;39.572;2.652;2023-04-03T06:54:03;13.66;76.13
68450;SHT30;67758;39.572;2.652;2023-04-03T06:56:29;13.66;76.12
68450;SHT30;67758;39.572;2.652;2023-04-03T06:58:56;13.74;76.06
68450;SHT30;67758;39.572;2.652;2023-04-03T07:01:27;13.75;76.09
68450;SHT30;67758;39.572;2.652;2023-04-03T07:03:53;13.62;76.37
68450;SHT30;67758;39.572;2.652;2023-04-03T07:06:19;13.66;76.41
68450;SHT30;67758;39.572;2.652;2023-04-03T07:08:45;13.69;76.48
68450;SHT30;67758;39.572;2.652;2023-04-03T07:11:12;13.76;76.19
68450;SHT30;67758;39.572;2.652;2023-04-03T07:13:38;13.79;76.11
68450;SHT30;67758;39.572;2.652;2023-04-03T07:16:05;13.83;75.76
68450;SHT30;67758;39.572;2.652;2023-04-03T07:18:34;13.92;75.72
68450;SHT30;67758;39.572;2.652;2023-04-03T07:21:01;13.95;75.25
68450;SHT30;67758;39.572;2.652;2023-04-03T07:23:27;14.03;75.23
68450;SHT30;67758;39.572;2.652;2023-04-03T07:25:53;14.15;75.10
68450;SHT30;67758;39.572;2.652;2023-04-03T07:28:20;14.17;75.10
68450;SHT30;67758;39.572;2.652;2023-04-03T07:31:02;14.29;74.51
68450;SHT30;67758;39.572;2.652;2023-04-03T07:33:28;14.37;73.81
68450;SHT30;67758;39.572;2.652;2023-04-03T07:35:54;14.37;73.48
68450;SHT30;67758;39.572;2.652;2023-04-03T07:38:19;14.46;73.35
68450;SHT30;67758;39.572;2.652;2023-04-03T07:40:47;14.48;72.47
68450;SHT30;67758;39.572;2.652;2023-04-03T07:43:14;14.51;72.80
68450;SHT30;67758;39.572;2.652;2023-04-03T07:45:40;14.57;72.40
68450;SHT30;67758;39.572;2.652;2023-04-03T07:48:05;14.66;71.87
68450;SHT30;67758;39.572;2.652;2023-04-03T07:50:31;14.76;71.69
68450;SHT30;67758;39.572;2.652;2023-04-03T07:52:58;14.73;69.82
68450;SHT30;67758;39.572;2.652;2023-04-03T07:55:24;14.74;69.31
68450;SHT30;67758;39.572;2.652;2023-04-03T07:57:50;14.81;69.26
68450;SHT30;67758;39.572;2.652;2023-04-03T08:00:17;14.78;69.09
68450;SHT30;67758;39.572;2.652;2023-04-03T08:02:43;14.81;69.57
68450;SHT30;67758;39.572;2.652;2023-04-03T08:05:10;14.85;69.77
68450;SHT30;67758;39.572;2.652;2023-04-03T08:07:37;14.81;67.77
68450;SHT30;67758;39.572;2.652;2023-04-03T08:10:03;14.94;68.32
68450;SHT30;67758;39.572;2.652;2023-04-03T08:12:30;15.02;68.80
68450;SHT30;67758;39.572;2.652;2023-04-03T08:14:59;15.07;67.14
68450;SHT30;67758;39.572;2.652;2023-04-03T08:17:25;15.25;66.50
68450;SHT30;67758;39.572;2.652;2023-04-03T08:19:51;15.17;66.82
68450;SHT30;67758;39.572;2.652;2023-04-03T08:22:17;15.21;67.16
68450;SHT30;67758;39.572;2.652;2023-04-03T08:24:42;15.31;67.18
68450;SHT30;67758;39.572;2.652;2023-04-03T08:27:08;15.29;66.81
68450;SHT30;67758;39.572;2.652;2023-04-03T08:29:34;15.24;67.28
68450;SHT30;67758;39.572;2.652;2023-04-03T08:32:00;15.32;67.59
68450;SHT30;67758;39.572;2.652;2023-04-03T08:34:25;15.42;68.07
68450;SHT30;67758;39.572;2.652;2023-04-03T08:36:51;15.43;67.99
68450;SHT30;67758;39.572;2.652;2023-04-03T08:39:16;15.52;67.23
68450;SHT30;67758;39.572;2.652;2023-04-03T08:41:43;15.56;67.18
68450;SHT30;67758;39.572;2.652;2023-04-03T08:49:53;15.74;66.63
68450;SHT30;67758;39.572;2.652;2023-04-03T08:52:39;15.74;65.97
68450;SHT30;67758;39.572;2.652;2023-04-03T08:55:31;15.99;65.96
68450;SHT30;67758;39.572;2.652;2023-04-03T08:58:04;16.09;65.71
68450;SHT30;67758;39.572;2.652;2023-04-03T09:03:20;16.40;64.78
68450;SHT30;67758;39.572;2.652;2023-04-03T09:06:05;16.54;64.86
68450;SHT30;67758;39.572;2.652;2023-04-03T09:08:55;16.55;64.62
68450;SHT30;67758;39.572;2.652;2023-04-03T09:21:28;17.37;62.77
68450;SHT30;67758;39.572;2.652;2023-04-03T09:26:09;17.16;62.97
68450;SHT30;67758;39.572;2.652;2023-04-03T09:28:40;17.22;63.01
68450;SHT30;67758;39.572;2.652;2023-04-03T09:31:26;17.37;63.42
68450;SHT30;67758;39.572;2.652;2023-04-03T09:33:58;17.69;63.12
68450;SHT30;67758;39.572;2.652;2023-04-03T09:36:45;17.50;63.27
68450;SHT30;67758;39.572;2.652;2023-04-03T09:39:23;17.63;64.20
68450;SHT30;67758;39.572;2.652;2023-04-03T09:42:02;17.73;63.88
68450;SHT30;67758;39.572;2.652;2023-04-03T09:44:36;17.66;64.20
68450;SHT30;67758;39.572;2.652;2023-04-03T09:47:32;17.70;63.20
68450;SHT30;67758;39.572;2.652;2023-04-03T09:52:43;18.38;62.93
68450;SHT30;67758;39.572;2.652;2023-04-03T09:55:21;18.52;62.15
68450;SHT30;67758;39.572;2.652;2023-04-03T09:57:53;18.56;61.99
68450;SHT30;67758;39.572;2.652;2023-04-03T10:00:30;18.38;62.18
68450;SHT30;67758;39.572;2.652;2023-04-03T10:02:58;18.57;61.63
68450;SHT30;67758;39.572;2.652;2023-04-03T10:05:35;18.34;62.39
68450;SHT30;67758;39.572;2.652;2023-04-03T10:10:33;18.21;62.87
68450;SHT30;67758;39.572;2.652;2023-04-03T10:13:10;18.31;62.52
68450;SHT30;67758;39.572;2.652;2023-04-03T10:15:46;18.79;60.84
68450;SHT30;67758;39.572;2.652;2023-04-03T10:18:31;19.23;60.97
68450;SHT30;67758;39.572;2.652;2023-04-03T10:21:04;18.70;61.42
68450;SHT30;67758;39.572;2.652;2023-04-03T10:23:45;18.70;61.09
68450;SHT30;67758;39.572;2.652;2023-04-03T10:29:40;18.99;60.68
68450;SHT30;67758;39.572;2.652;2023-04-03T10:32:15;18.85;61.40
68450;SHT30;67758;39.572;2.652;2023-04-03T10:34:44;18.99;60.76
68450;SHT30;67758;39.572;2.652;2023-04-03T10:39:59;18.77;61.00
68450;SHT30;67758;39.572;2.652;2023-04-03T10:45:28;21.66;53.52
68450;SHT30;67758;39.572;2.652;2023-04-03T10:48:08;22.39;50.71
68450;SHT30;67758;39.572;2.652;2023-04-03T10:51:00;22.67;50.25
68450;SHT30;67758;39.572;2.652;2023-04-03T10:56:32;23.19;48.96
68450;SHT30;67758;39.572;2.652;2023-04-03T11:01:37;24.20;46.73
68450;SHT30;67758;39.572;2.652;2023-04-03T11:04:05;24.47;46.48
68450;SHT30;67758;39.572;2.652;2023-04-03T11:11:54;24.17;47.01
68450;SHT30;67758;39.572;2.652;2023-04-03T11:14:26;24.42;46.17
68450;SHT30;67758;39.572;2.652;2023-04-03T11:17:15;24.13;46.84
68450;SHT30;67758;39.572;2.652;2023-04-03T11:20:29;22.75;49.44
68450;SHT30;67758;39.572;2.652;2023-04-03T11:22:41;22.65;50.47
68450;SHT30;67758;39.572;2.652;2023-04-03T11:28:06;23.30;48.88
68450;SHT30;67758;39.572;2.652;2023-04-03T11:36:23;23.52;47.70
68450;SHT30;67758;39.572;2.652;2023-04-03T11:38:54;24.03;47.27
68450;SHT30;67758;39.572;2.652;2023-04-03T11:41:29;23.76;47.73
68450;SHT30;67758;39.572;2.652;2023-04-03T11:49:53;23.36;48.75
68450;SHT30;67758;39.572;2.652;2023-04-03T12:01:06;23.74;49.38
68450;SHT30;67758;39.572;2.652;2023-04-03T12:16:06;18.99;62.03
68450;SHT30;67758;39.572;2.652;2023-04-03T12:21:20;18.85;62.20
68450;SHT30;67758;39.572;2.652;2023-04-03T12:48:28;22.91;52.66
68450;SHT30;67758;39.572;2.652;2023-04-03T12:50:55;22.88;52.45
68450;SHT30;67758;39.572;2.652;2023-04-03T12:53:25;23.32;51.42
68450;SHT30;67758;39.572;2.652;2023-04-03T12:55:55;22.94;51.62
68450;SHT30;67758;39.572;2.652;2023-04-03T12:58:26;22.30;52.36
68450;SHT30;67758;39.572;2.652;2023-04-03T13:01:13;21.96;52.98
68450;SHT30;67758;39.572;2.652;2023-04-03T13:03:43;22.64;50.82
68450;SHT30;67758;39.572;2.652;2023-04-03T13:06:27;22.98;49.48
68450;SHT30;67758;39.572;2.652;2023-04-03T13:08:59;23.16;48.60
68450;SHT30;67758;39.572;2.652;2023-04-03T13:11:30;23.08;49.42
68450;SHT30;67758;39.572;2.652;2023-04-03T13:14:14;22.54;50.14
68450;SHT30;67758;39.572;2.652;2023-04-03T13:16:40;22.37;50.88
68450;SHT30;67758;39.572;2.652;2023-04-03T13:19:15;21.62;52.58
68450;SHT30;67758;39.572;2.652;2023-04-03T13:21:42;22.57;50.07
68450;SHT30;67758;39.572;2.652;2023-04-03T13:24:09;23.80;47.59
68450;SHT30;67758;39.572;2.652;2023-04-03T13:26:36;24.14;47.44
68450;SHT30;67758;39.572;2.652;2023-04-03T13:29:06;24.52;46.34
68450;SHT30;67758;39.572;2.652;2023-04-03T13:31:37;23.22;49.34
68450;SHT30;67758;39.572;2.652;2023-04-03T13:34:10;21.89;52.87
68450;SHT30;67758;39.572;2.652;2023-04-03T13:36:58;20.61;55.99
68450;SHT30;67758;39.572;2.652;2023-04-03T13:39:30;19.71;58.77
68450;SHT30;67758;39.572;2.652;2023-04-03T13:41:58;19.20;59.37
68450;SHT30;67758;39.572;2.652;2023-04-03T13:44:34;18.75;60.74
68450;SHT30;67758;39.572;2.652;2023-04-03T13:47:27;18.29;62.45
68450;SHT30;67758;39.572;2.652;2023-04-03T13:52:52;18.09;60.99
68450;SHT30;67758;39.572;2.652;2023-04-03T14:00:48;17.91;59.41
68450;SHT30;67758;39.572;2.652;2023-04-03T14:03:29;17.83;61.75
68450;SHT30;67758;39.572;2.652;2023-04-03T14:05:55;17.69;60.54
68450;SHT30;67758;39.572;2.652;2023-04-03T14:08:21;17.63;61.41
68450;SHT30;67758;39.572;2.652;2023-04-03T14:10:47;17.40;62.49
68450;SHT30;67758;39.572;2.652;2023-04-03T14:13:16;17.13;62.90
68450;SHT30;67758;39.572;2.652;2023-04-03T14:15:42;16.99;62.95
68450;SHT30;67758;39.572;2.652;2023-04-03T14:18:20;16.95;64.79
68450;SHT30;67758;39.572;2.652;2023-04-03T14:20:48;16.58;66.85
68450;SHT30;67758;39.572;2.652;2023-04-03T14:23:14;16.37;68.42
68450;SHT30;67758;39.572;2.652;2023-04-03T14:25:40;15.65;70.70
68450;SHT30;67758;39.572;2.652;2023-04-03T14:28:33;15.58;73.77
68450;SHT30;67758;39.572;2.652;2023-04-03T14:30:59;15.39;73.92
68450;SHT30;67758;39.572;2.652;2023-04-03T14:33:24;15.39;76.34
68450;SHT30;67758;39.572;2.652;2023-04-03T14:35:52;15.24;74.96
68450;SHT30;67758;39.572;2.652;2023-04-03T14:38:24;15.11;76.90
68450;SHT30;67758;39.572;2.652;2023-04-03T14:40:50;14.99;77.32
68450;SHT30;67758;39.572;2.652;2023-04-03T14:43:16;14.85;77.68
68450;SHT30;67758;39.572;2.652;2023-04-03T14:45:43;14.83;77.63
68450;SHT30;67758;39.572;2.652;2023-04-03T14:48:23;14.47;75.80
68450;SHT30;67758;39.572;2.652;2023-04-03T14:50:50;14.38;79.19
68450;SHT30;67758;39.572;2.652;2023-04-03T14:53:17;14.73;78.25
68450;SHT30;67758;39.572;2.652;2023-04-03T14:55:53;14.97;78.42
68450;SHT30;67758;39.572;2.652;2023-04-03T14:58:21;14.99;76.82
68450;SHT30;67758;39.572;2.652;2023-04-03T15:00:49;15.26;77.80
68450;SHT30;67758;39.572;2.652;2023-04-03T15:03:20;15.11;77.02
68450;SHT30;67758;39.572;2.652;2023-04-03T15:05:49;15.21;77.06
68450;SHT30;67758;39.572;2.652;2023-04-03T15:08:25;16.78;73.22
68450;SHT30;67758;39.572;2.652;2023-04-03T15:10:53;18.04;65.68
68450;SHT30;67758;39.572;2.652;2023-04-03T15:13:21;19.75;60.51
68450;SHT30;67758;39.572;2.652;2023-04-03T15:15:47;20.67;57.71
68450;SHT30;67758;39.572;2.652;2023-04-03T15:18:16;20.95;56.50
68450;SHT30;67758;39.572;2.652;2023-04-03T15:20:45;19.64;59.39
68450;SHT30;67758;39.572;2.652;2023-04-03T15:23:12;18.57;62.24
68450;SHT30;67758;39.572;2.652;2023-04-03T15:25:41;18.16;64.52
68450;SHT30;67758;39.572;2.652;2023-04-03T15:28:34;16.81;64.89
68450;SHT30;67758;39.572;2.652;2023-04-03T15:31:01;16.50;65.64
68450;SHT30;67758;39.572;2.652;2023-04-03T15:33:35;16.50;65.62
68450;SHT30;67758;39.572;2.652;2023-04-03T15:36:03;16.81;66.03
68450;SHT30;67758;39.572;2.652;2023-04-03T15:38:37;18.36;60.32
68450;SHT30;67758;39.572;2.652;2023-04-03T15:41:04;20.02;56.08
68450;SHT30;67758;39.572;2.652;2023-04-03T15:43:30;19.86;56.41
68450;SHT30;67758;39.572;2.652;2023-04-03T15:45:57;18.95;56.28
68450;SHT30;67758;39.572;2.652;2023-04-03T15:48:24;18.39;59.39
68450;SHT30;67758;39.572;2.652;2023-04-03T15:50:51;18.36;59.22
68450;SHT30;67758;39.572;2.652;2023-04-03T15:53:16;19.37;56.91
68450;SHT30;67758;39.572;2.652;2023-04-03T15:55:42;20.83;54.93
68450;SHT30;67758;39.572;2.652;2023-04-03T15:58:08;21.61;53.29
68450;SHT30;67758;39.572;2.652;2023-04-03T16:00:35;22.33;49.82
68450;SHT30;67758;39.572;2.652;2023-04-03T16:03:20;23.16;47.32
68450;SHT30;67758;39.572;2.652;2023-04-03T16:05:47;22.47;48.64
68450;SHT30;67758;39.572;2.652;2023-04-03T16:08:13;22.16;48.41
68450;SHT30;67758;39.572;2.652;2023-04-03T16:10:39;22.34;49.20
68450;SHT30;67758;39.572;2.652;2023-04-03T16:13:06;22.55;46.96
68450;SHT30;67758;39.572;2.652;2023-04-03T16:15:32;23.22;46.92
68450;SHT30;67758;39.572;2.652;2023-04-03T16:17:59;23.41;44.92
68450;SHT30;67758;39.572;2.652;2023-04-03T16:20:28;23.96;45.97
68450;SHT30;67758;39.572;2.652;2023-04-03T16:22:56;23.83;45.36
68450;SHT30;67758;39.572;2.652;2023-04-03T16:25:22;23.74;45.25
68450;SHT30;67758;39.572;2.652;2023-04-03T16:27:48;23.38;45.10
68450;SHT30;67758;39.572;2.652;2023-04-03T16:30:13;23.63;44.41
68450;SHT30;67758;39.572;2.652;2023-04-03T16:32:40;24.06;44.58
68450;SHT30;67758;39.572;2.652;2023-04-03T16:35:08;23.32;45.23
68450;SHT30;67758;39.572;2.652;2023-04-03T16:37:36;22.43;46.52
68450;SHT30;67758;39.572;2.652;2023-04-03T16:40:03;22.29;46.96
68450;SHT30;67758;39.572;2.652;2023-04-03T16:42:30;22.14;46.85
68450;SHT30;67758;39.572;2.652;2023-04-03T16:44:55;22.69;46.82
68450;SHT30;67758;39.572;2.652;2023-04-03T16:47:21;22.78;46.23
68450;SHT30;67758;39.572;2.652;2023-04-03T16:49:46;22.36;47.41
68450;SHT30;67758;39.572;2.652;2023-04-03T16:52:13;22.43;46.56
68450;SHT30;67758;39.572;2.652;2023-04-03T16:54:39;22.00;47.03
68450;SHT30;67758;39.572;2.652;2023-04-03T16:57:05;22.14;46.37
68450;SHT30;67758;39.572;2.652;2023-04-03T16:59:30;21.79;47.35
68450;SHT30;67758;39.572;2.652;2023-04-03T17:01:56;21.67;47.42
68450;SHT30;67758;39.572;2.652;2023-04-03T17:04:22;21.81;47.21
68450;SHT30;67758;39.572;2.652;2023-04-03T17:06:47;22.09;46.78
68450;SHT30;67758;39.572;2.652;2023-04-03T17:09:13;21.85;46.76
68450;SHT30;67758;39.572;2.652;2023-04-03T17:11:40;22.27;45.53
68450;SHT30;67758;39.572;2.652;2023-04-03T17:14:05;21.86;45.86
68450;SHT30;67758;39.572;2.652;2023-04-03T17:16:34;22.09;47.42
68450;SHT30;67758;39.572;2.652;2023-04-03T17:19:00;22.24;45.88
68450;SHT30;67758;39.572;2.652;2023-04-03T17:21:26;22.41;45.92
68450;SHT30;67758;39.572;2.652;2023-04-03T17:23:55;22.71;45.71
68450;SHT30;67758;39.572;2.652;2023-04-03T17:26:23;22.81;45.77
68450;SHT30;67758;39.572;2.652;2023-04-03T17:28:49;22.36;47.33
68450;SHT30;67758;39.572;2.652;2023-04-03T17:31:14;22.03;47.50
68450;SHT30;67758;39.572;2.652;2023-04-03T17:33:40;21.42;48.73
68450;SHT30;67758;39.572;2.652;2023-04-03T17:36:09;21.27;49.81
68450;SHT30;67758;39.572;2.652;2023-04-03T17:38:35;20.76;51.08
68450;SHT30;67758;39.572;2.652;2023-04-03T17:41:09;20.02;52.47